Buoy 52912

sailwx.info

Track history (hours):
 
Tides and Currents Weather Stations Pressure Air Temp Water Temp Dewpoint Dewpoint Depression Visibility Wind Speed Wind Dir Waves Ship Positions

Drifting buoy 52912

Last reported at 2015-Apr-19 05:00 UTC. Time now 2015-Apr-19 15:41 UTC.
Position N 14°56' E 134°50'.

Water temperature 28.2 ° C

Date/timePositionNaut miles runAvg speedWind from/ knotsBaromVisibWave heightAir tempDewpointWater temp
2015-Apr-19 05:00N 14°56' E 134°50'0 0.0 28.2
2015-Apr-19 04:00N 14°56' E 134°50'5 0.8 28.2
2015-Apr-18 22:00N 14°52' E 134°53'1 1.2 27.9
2015-Apr-18 21:00N 14°52' E 134°54'2 1.1 27.9
2015-Apr-18 19:00N 14°51' E 134°56'1 0.4 27.9
2015-Apr-18 16:00N 14°50' E 134°57'0 0.0 27.9
2015-Apr-18 15:00N 14°50' E 134°57'4 0.6 27.9
2015-Apr-18 08:00N 14°49' E 135°01'0 0.0 28.0
2015-Apr-18 07:00N 14°49' E 135°01'2 1.0 28.0
2015-Apr-18 05:00N 14°48' E 135°02'0 0.0 28.1
2015-Apr-18 04:00N 14°48' E 135°02'6 0.7 28.0
2015-Apr-17 20:00N 14°46' E 135°08'0 0.3 27.9
2015-Apr-17 19:00N 14°46' E 135°08'3 0.4 27.9
2015-Apr-17 12:00N 14°45' E 135°10'13 0.8 28.0
2015-Apr-16 21:00N 14°36' E 135°20'2 0.8 27.9
2015-Apr-16 18:00N 14°36' E 135°22'22 1.0 27.9
2015-Apr-15 20:00N 14°29' E 135°44'13 1.0 27.9
2015-Apr-15 07:00N 14°25' E 135°56'1 1.3 28.2
2015-Apr-15 06:00N 14°24' E 135°58'1 0.5 28.2
2015-Apr-15 04:00N 14°24' E 135°59'6 0.8 28.2
2015-Apr-14 21:00N 14°22' E 136°04'3 0.8 27.8
2015-Apr-14 17:00N 14°21' E 136°07'0 0.0 27.9
2015-Apr-14 16:00N 14°21' E 136°07'11 1.2 27.9
2015-Apr-14 07:00N 14°15' E 136°17'1 1.5 28.1
2015-Apr-14 06:00N 14°15' E 136°18'10 1.0 28.1
2015-Apr-13 20:00N 14°12' E 136°28'3 1.0 27.8
2015-Apr-13 17:00N 14°10' E 136°31'0 0.0 27.8
2015-Apr-13 16:00N 14°10' E 136°31'9 1.2 27.8
2015-Apr-13 09:00N 14°07' E 136°39'3 0.9 27.9
2015-Apr-13 06:00N 14°06' E 136°41'5 0.5 28.0
2015-Apr-12 20:00N 14°03' E 136°45'0 0.0 27.7
2015-Apr-12 19:00N 14°03' E 136°45'8 1.4 27.7
2015-Apr-12 13:00N 13°56' E 136°51'1 0.7 27.8
2015-Apr-12 11:00N 13°55' E 136°52'5 2.4 27.8
2015-Apr-12 09:00N 13°52' E 136°55'4 1.9 27.9
2015-Apr-12 07:00N 13°50' E 136°59'0 0.0 27.9
2015-Apr-12 06:00N 13°50' E 136°59'11 1.0 27.9
2015-Apr-11 19:00N 13°46' E 137°09'1 0.9 27.8
2015-Apr-11 18:00N 13°46' E 137°10'0 0.1 27.8
2015-Apr-11 17:00N 13°46' E 137°10'2 0.8 27.8
2015-Apr-11 15:00N 13°46' E 137°11'6 0.8 27.8
2015-Apr-11 08:00N 13°45' E 137°17'2 0.5 27.9
2015-Apr-11 04:00N 13°43' E 137°18'1 0.5 27.9
2015-Apr-11 01:00N 13°42' E 137°19'1 0.8 27.8
2015-Apr-11 00:00N 13°41' E 137°19'2 0.6 27.8
2015-Apr-10 21:00N 13°39' E 137°20'2 2.2 27.7
2015-Apr-10 20:00N 13°38' E 137°21'1 0.6 27.7
2015-Apr-10 18:00N 13°36' E 137°21'5 0.9 27.7
2015-Apr-10 13:00N 13°32' E 137°23'5 1.0 27.8
2015-Apr-10 08:00N 13°29' E 137°28'3 3.4 27.9
2015-Apr-10 07:00N 13°27' E 137°30'0 0.0 27.9
2015-Apr-10 06:00N 13°27' E 137°30'0 0.0 27.9
2015-Apr-10 04:00N 13°27' E 137°30'8 2.1 27.8
2015-Apr-10 00:00N 13°24' E 137°38'5 0.6 27.7
2015-Apr-09 16:00N 13°23' E 137°43'0 0.0 27.7
2015-Apr-09 15:00N 13°23' E 137°43'3 0.6 27.7
2015-Apr-09 09:00N 13°23' E 137°46'0 0.0 27.8
2015-Apr-09 08:00N 13°23' E 137°46'1 0.5 27.8
2015-Apr-09 05:00N 13°23' E 137°48'   27.9
Track history (hours):
 
Tides and Currents Weather Stations Pressure Air Temp Water Temp Dewpoint Dewpoint Depression Visibility Wind Speed Wind Dir Waves Ship Positions

Drifting buoy 52912

Last reported at 2015-Apr-19 05:00 UTC. Time now 2015-Apr-19 15:41 UTC.
Position N 14°56' E 134°50'.

Water temperature 28.2 ° C

Date/timePositionNaut miles runAvg speedWind from/ knotsBaromVisibWave heightAir tempDewpointWater temp
2015-Apr-19 05:00N 14°56' E 134°50'0 0.0 28.2
2015-Apr-19 04:00N 14°56' E 134°50'5 0.8 28.2
2015-Apr-18 22:00N 14°52' E 134°53'1 1.2 27.9
2015-Apr-18 21:00N 14°52' E 134°54'2 1.1 27.9
2015-Apr-18 19:00N 14°51' E 134°56'1 0.4 27.9
2015-Apr-18 16:00N 14°50' E 134°57'0 0.0 27.9
2015-Apr-18 15:00N 14°50' E 134°57'4 0.6 27.9
2015-Apr-18 08:00N 14°49' E 135°01'0 0.0 28.0
2015-Apr-18 07:00N 14°49' E 135°01'2 1.0 28.0
2015-Apr-18 05:00N 14°48' E 135°02'0 0.0 28.1
2015-Apr-18 04:00N 14°48' E 135°02'6 0.7 28.0
2015-Apr-17 20:00N 14°46' E 135°08'0 0.3 27.9
2015-Apr-17 19:00N 14°46' E 135°08'3 0.4 27.9
2015-Apr-17 12:00N 14°45' E 135°10'13 0.8 28.0
2015-Apr-16 21:00N 14°36' E 135°20'2 0.8 27.9
2015-Apr-16 18:00N 14°36' E 135°22'22 1.0 27.9
2015-Apr-15 20:00N 14°29' E 135°44'13 1.0 27.9
2015-Apr-15 07:00N 14°25' E 135°56'1 1.3 28.2
2015-Apr-15 06:00N 14°24' E 135°58'1 0.5 28.2
2015-Apr-15 04:00N 14°24' E 135°59'6 0.8 28.2
2015-Apr-14 21:00N 14°22' E 136°04'3 0.8 27.8
2015-Apr-14 17:00N 14°21' E 136°07'0 0.0 27.9
2015-Apr-14 16:00N 14°21' E 136°07'11 1.2 27.9
2015-Apr-14 07:00N 14°15' E 136°17'1 1.5 28.1
2015-Apr-14 06:00N 14°15' E 136°18'10 1.0 28.1
2015-Apr-13 20:00N 14°12' E 136°28'3 1.0 27.8
2015-Apr-13 17:00N 14°10' E 136°31'0 0.0 27.8
2015-Apr-13 16:00N 14°10' E 136°31'9 1.2 27.8
2015-Apr-13 09:00N 14°07' E 136°39'3 0.9 27.9
2015-Apr-13 06:00N 14°06' E 136°41'5 0.5 28.0
2015-Apr-12 20:00N 14°03' E 136°45'0 0.0 27.7
2015-Apr-12 19:00N 14°03' E 136°45'8 1.4 27.7
2015-Apr-12 13:00N 13°56' E 136°51'1 0.7 27.8
2015-Apr-12 11:00N 13°55' E 136°52'5 2.4 27.8
2015-Apr-12 09:00N 13°52' E 136°55'4 1.9 27.9
2015-Apr-12 07:00N 13°50' E 136°59'0 0.0 27.9
2015-Apr-12 06:00N 13°50' E 136°59'11 1.0 27.9
2015-Apr-11 19:00N 13°46' E 137°09'1 0.9 27.8
2015-Apr-11 18:00N 13°46' E 137°10'0 0.1 27.8
2015-Apr-11 17:00N 13°46' E 137°10'2 0.8 27.8
2015-Apr-11 15:00N 13°46' E 137°11'6 0.8 27.8
2015-Apr-11 08:00N 13°45' E 137°17'2 0.5 27.9
2015-Apr-11 04:00N 13°43' E 137°18'1 0.5 27.9
2015-Apr-11 01:00N 13°42' E 137°19'1 0.8 27.8
2015-Apr-11 00:00N 13°41' E 137°19'2 0.6 27.8
2015-Apr-10 21:00N 13°39' E 137°20'2 2.2 27.7
2015-Apr-10 20:00N 13°38' E 137°21'1 0.6 27.7
2015-Apr-10 18:00N 13°36' E 137°21'5 0.9 27.7
2015-Apr-10 13:00N 13°32' E 137°23'5 1.0 27.8
2015-Apr-10 08:00N 13°29' E 137°28'3 3.4 27.9
2015-Apr-10 07:00N 13°27' E 137°30'0 0.0 27.9
2015-Apr-10 06:00N 13°27' E 137°30'0 0.0 27.9
2015-Apr-10 04:00N 13°27' E 137°30'8 2.1 27.8
2015-Apr-10 00:00N 13°24' E 137°38'5 0.6 27.7
2015-Apr-09 16:00N 13°23' E 137°43'0 0.0 27.7
2015-Apr-09 15:00N 13°23' E 137°43'3 0.6 27.7
2015-Apr-09 09:00N 13°23' E 137°46'0 0.0 27.8
2015-Apr-09 08:00N 13°23' E 137°46'1 0.5 27.8
2015-Apr-09 05:00N 13°23' E 137°48'   27.9

Dump ship's entire track history